sensor_id;sensor_type;location;lat;lon;timestamp;temperature;humidity
22418;DHT22;11376;50.932;4.442;2023-04-10T00:02:08;10.80;99.90
22418;DHT22;11376;50.932;4.442;2023-04-10T00:04:34;10.80;99.90
22418;DHT22;11376;50.932;4.442;2023-04-10T00:07:00;10.80;99.90
22418;DHT22;11376;50.932;4.442;2023-04-10T00:09:25;10.80;99.90
22418;DHT22;11376;50.932;4.442;2023-04-10T00:11:51;10.90;99.90
22418;DHT22;11376;50.932;4.442;2023-04-10T00:14:17;10.80;99.90
22418;DHT22;11376;50.932;4.442;2023-04-10T00:16:48;10.70;99.90
22418;DHT22;11376;50.932;4.442;2023-04-10T00:19:13;10.60;99.90
22418;DHT22;11376;50.932;4.442;2023-04-10T00:21:39;10.50;99.90
22418;DHT22;11376;50.932;4.442;2023-04-10T00:24:04;10.40;99.90
22418;DHT22;11376;50.932;4.442;2023-04-10T00:26:30;10.40;99.90
22418;DHT22;11376;50.932;4.442;2023-04-10T00:28:56;10.40;99.90
22418;DHT22;11376;50.932;4.442;2023-04-10T00:31:21;10.40;99.90
22418;DHT22;11376;50.932;4.442;2023-04-10T00:33:47;10.50;99.90
22418;DHT22;11376;50.932;4.442;2023-04-10T00:36:12;10.50;99.90
22418;DHT22;11376;50.932;4.442;2023-04-10T00:38:38;10.50;99.90
22418;DHT22;11376;50.932;4.442;2023-04-10T00:41:04;10.50;99.90
22418;DHT22;11376;50.932;4.442;2023-04-10T00:43:30;10.40;99.90
22418;DHT22;11376;50.932;4.442;2023-04-10T00:45:55;10.50;99.90
22418;DHT22;11376;50.932;4.442;2023-04-10T00:48:21;10.50;99.90
22418;DHT22;11376;50.932;4.442;2023-04-10T00:50:47;10.40;99.90
22418;DHT22;11376;50.932;4.442;2023-04-10T00:53:12;10.50;99.90
22418;DHT22;11376;50.932;4.442;2023-04-10T00:55:38;10.50;99.90
22418;DHT22;11376;50.932;4.442;2023-04-10T00:58:04;10.40;99.90
22418;DHT22;11376;50.932;4.442;2023-04-10T01:00:30;10.40;99.90
22418;DHT22;11376;50.932;4.442;2023-04-10T01:02:55;10.50;99.90
22418;DHT22;11376;50.932;4.442;2023-04-10T01:05:21;10.40;99.90
22418;DHT22;11376;50.932;4.442;2023-04-10T01:13:21;10.30;99.90
22418;DHT22;11376;50.932;4.442;2023-04-10T01:16:15;10.30;99.90
22418;DHT22;11376;50.932;4.442;2023-04-10T01:18:52;10.30;99.90
22418;DHT22;11376;50.932;4.442;2023-04-10T01:21:19;10.30;99.90
22418;DHT22;11376;50.932;4.442;2023-04-10T01:26:49;10.30;99.90
22418;DHT22;11376;50.932;4.442;2023-04-10T01:29:17;10.30;99.90
22418;DHT22;11376;50.932;4.442;2023-04-10T01:32:00;10.30;99.90
22418;DHT22;11376;50.932;4.442;2023-04-10T01:34:32;10.40;99.90
22418;DHT22;11376;50.932;4.442;2023-04-10T01:37:02;10.40;99.90
22418;DHT22;11376;50.932;4.442;2023-04-10T01:39:29;10.40;99.90
22418;DHT22;11376;50.932;4.442;2023-04-10T01:41:57;10.40;99.90
22418;DHT22;11376;50.932;4.442;2023-04-10T01:44:27;10.50;99.90
22418;DHT22;11376;50.932;4.442;2023-04-10T01:46:55;10.50;99.90
22418;DHT22;11376;50.932;4.442;2023-04-10T01:49:25;10.50;99.90
22418;DHT22;11376;50.932;4.442;2023-04-10T01:51:51;10.50;99.90
22418;DHT22;11376;50.932;4.442;2023-04-10T01:54:19;10.50;99.90
22418;DHT22;11376;50.932;4.442;2023-04-10T01:56:45;10.50;99.90
22418;DHT22;11376;50.932;4.442;2023-04-10T01:59:11;10.50;99.90
22418;DHT22;11376;50.932;4.442;2023-04-10T02:01:36;10.50;99.90
22418;DHT22;11376;50.932;4.442;2023-04-10T02:04:02;10.50;99.90
22418;DHT22;11376;50.932;4.442;2023-04-10T02:06:56;10.50;99.90
22418;DHT22;11376;50.932;4.442;2023-04-10T02:09:49;10.50;99.90
22418;DHT22;11376;50.932;4.442;2023-04-10T02:12:22;10.50;99.90
22418;DHT22;11376;50.932;4.442;2023-04-10T02:14:52;10.50;99.90
22418;DHT22;11376;50.932;4.442;2023-04-10T02:17:28;10.40;99.90
22418;DHT22;11376;50.932;4.442;2023-04-10T02:19:55;10.40;99.90
22418;DHT22;11376;50.932;4.442;2023-04-10T02:22:22;10.40;99.90
22418;DHT22;11376;50.932;4.442;2023-04-10T02:24:50;10.40;99.90
22418;DHT22;11376;50.932;4.442;2023-04-10T02:27:25;10.40;99.90
22418;DHT22;11376;50.932;4.442;2023-04-10T02:29:50;10.40;99.90
22418;DHT22;11376;50.932;4.442;2023-04-10T02:32:16;10.40;99.90
22418;DHT22;11376;50.932;4.442;2023-04-10T02:34:42;10.40;99.90
22418;DHT22;11376;50.932;4.442;2023-04-10T02:37:08;10.40;99.90
22418;DHT22;11376;50.932;4.442;2023-04-10T02:39:33;10.30;99.90
22418;DHT22;11376;50.932;4.442;2023-04-10T02:41:59;10.40;99.90
22418;DHT22;11376;50.932;4.442;2023-04-10T02:44:25;10.30;99.90
22418;DHT22;11376;50.932;4.442;2023-04-10T02:46:51;10.20;99.90
22418;DHT22;11376;50.932;4.442;2023-04-10T02:49:16;10.30;99.90
22418;DHT22;11376;50.932;4.442;2023-04-10T02:51:42;10.20;99.90
22418;DHT22;11376;50.932;4.442;2023-04-10T02:54:08;10.20;99.90
22418;DHT22;11376;50.932;4.442;2023-04-10T02:56:33;10.20;99.90
22418;DHT22;11376;50.932;4.442;2023-04-10T02:58:59;10.20;99.90
22418;DHT22;11376;50.932;4.442;2023-04-10T03:01:26;10.10;99.90
22418;DHT22;11376;50.932;4.442;2023-04-10T03:03:51;10.10;99.90
22418;DHT22;11376;50.932;4.442;2023-04-10T03:06:17;10.10;99.90
22418;DHT22;11376;50.932;4.442;2023-04-10T03:08:42;10.10;99.90
22418;DHT22;11376;50.932;4.442;2023-04-10T03:11:08;10.10;99.90
22418;DHT22;11376;50.932;4.442;2023-04-10T03:13:34;10.10;99.90
22418;DHT22;11376;50.932;4.442;2023-04-10T03:15:59;10.10;99.90
22418;DHT22;11376;50.932;4.442;2023-04-10T03:18:25;10.10;99.90
22418;DHT22;11376;50.932;4.442;2023-04-10T03:20:50;10.10;99.90
22418;DHT22;11376;50.932;4.442;2023-04-10T03:23:16;10.20;99.90
22418;DHT22;11376;50.932;4.442;2023-04-10T03:25:42;10.20;99.90
22418;DHT22;11376;50.932;4.442;2023-04-10T03:28:07;10.20;99.90
22418;DHT22;11376;50.932;4.442;2023-04-10T03:30:33;10.30;99.90
22418;DHT22;11376;50.932;4.442;2023-04-10T03:33:01;10.20;99.90
22418;DHT22;11376;50.932;4.442;2023-04-10T03:35:27;10.10;99.90
22418;DHT22;11376;50.932;4.442;2023-04-10T03:37:52;10.00;99.90
22418;DHT22;11376;50.932;4.442;2023-04-10T03:40:18;10.00;99.90
22418;DHT22;11376;50.932;4.442;2023-04-10T03:42:43;9.90;99.90
22418;DHT22;11376;50.932;4.442;2023-04-10T03:45:10;9.80;99.90
22418;DHT22;11376;50.932;4.442;2023-04-10T03:47:36;9.80;99.90
22418;DHT22;11376;50.932;4.442;2023-04-10T03:50:01;9.70;99.90
22418;DHT22;11376;50.932;4.442;2023-04-10T03:52:27;9.70;99.90
22418;DHT22;11376;50.932;4.442;2023-04-10T03:54:53;9.60;99.90
22418;DHT22;11376;50.932;4.442;2023-04-10T03:57:19;9.60;99.90
22418;DHT22;11376;50.932;4.442;2023-04-10T03:59:46;9.60;99.90
22418;DHT22;11376;50.932;4.442;2023-04-10T04:02:11;9.50;99.90
22418;DHT22;11376;50.932;4.442;2023-04-10T04:04:38;9.40;99.90
22418;DHT22;11376;50.932;4.442;2023-04-10T04:07:03;9.40;99.90
22418;DHT22;11376;50.932;4.442;2023-04-10T04:09:29;9.30;99.90
22418;DHT22;11376;50.932;4.442;2023-04-10T04:11:55;9.30;99.90
22418;DHT22;11376;50.932;4.442;2023-04-10T04:14:22;9.30;99.90
22418;DHT22;11376;50.932;4.442;2023-04-10T04:16:47;9.30;99.90
22418;DHT22;11376;50.932;4.442;2023-04-10T04:19:13;9.30;99.90
22418;DHT22;11376;50.932;4.442;2023-04-10T04:21:39;9.30;99.90
22418;DHT22;11376;50.932;4.442;2023-04-10T04:24:05;9.30;99.90
22418;DHT22;11376;50.932;4.442;2023-04-10T04:26:30;9.30;99.90
22418;DHT22;11376;50.932;4.442;2023-04-10T04:28:56;9.30;99.90
22418;DHT22;11376;50.932;4.442;2023-04-10T04:31:21;9.30;99.90
22418;DHT22;11376;50.932;4.442;2023-04-10T04:33:48;9.30;99.90
22418;DHT22;11376;50.932;4.442;2023-04-10T04:36:14;9.40;99.90
22418;DHT22;11376;50.932;4.442;2023-04-10T04:38:39;9.40;99.90
22418;DHT22;11376;50.932;4.442;2023-04-10T04:41:05;9.40;99.90
22418;DHT22;11376;50.932;4.442;2023-04-10T04:43:31;9.50;99.90
22418;DHT22;11376;50.932;4.442;2023-04-10T04:45:56;9.50;99.90
22418;DHT22;11376;50.932;4.442;2023-04-10T04:48:24;9.50;99.90
22418;DHT22;11376;50.932;4.442;2023-04-10T04:50:49;9.50;99.90
22418;DHT22;11376;50.932;4.442;2023-04-10T04:53:15;9.50;99.90
22418;DHT22;11376;50.932;4.442;2023-04-10T04:55:41;9.50;99.90
22418;DHT22;11376;50.932;4.442;2023-04-10T04:58:06;9.50;99.90
22418;DHT22;11376;50.932;4.442;2023-04-10T05:00:32;9.50;99.90
22418;DHT22;11376;50.932;4.442;2023-04-10T05:02:57;9.50;99.90
22418;DHT22;11376;50.932;4.442;2023-04-10T05:05:23;9.50;99.90
22418;DHT22;11376;50.932;4.442;2023-04-10T05:07:48;9.50;99.90
22418;DHT22;11376;50.932;4.442;2023-04-10T05:10:14;9.50;99.90
22418;DHT22;11376;50.932;4.442;2023-04-10T05:12:39;9.50;99.90
22418;DHT22;11376;50.932;4.442;2023-04-10T05:15:07;9.50;99.90
22418;DHT22;11376;50.932;4.442;2023-04-10T05:17:33;9.60;99.90
22418;DHT22;11376;50.932;4.442;2023-04-10T05:19:59;9.60;99.90
22418;DHT22;11376;50.932;4.442;2023-04-10T05:22:25;9.60;99.90
22418;DHT22;11376;50.932;4.442;2023-04-10T05:24:51;9.60;99.90
22418;DHT22;11376;50.932;4.442;2023-04-10T05:27:17;9.70;99.90
22418;DHT22;11376;50.932;4.442;2023-04-10T05:29:43;9.70;99.90
22418;DHT22;11376;50.932;4.442;2023-04-10T05:32:08;9.80;99.90
22418;DHT22;11376;50.932;4.442;2023-04-10T05:34:34;9.80;99.90
22418;DHT22;11376;50.932;4.442;2023-04-10T05:36:59;9.80;99.90
22418;DHT22;11376;50.932;4.442;2023-04-10T05:39:25;9.80;99.90
22418;DHT22;11376;50.932;4.442;2023-04-10T05:41:50;9.90;99.90
22418;DHT22;11376;50.932;4.442;2023-04-10T05:44:16;9.90;99.90
22418;DHT22;11376;50.932;4.442;2023-04-10T05:46:42;10.10;99.90
22418;DHT22;11376;50.932;4.442;2023-04-10T05:49:07;10.10;99.90
22418;DHT22;11376;50.932;4.442;2023-04-10T05:51:33;10.10;99.90
22418;DHT22;11376;50.932;4.442;2023-04-10T05:53:58;10.20;99.90
22418;DHT22;11376;50.932;4.442;2023-04-10T05:56:24;10.20;99.90
22418;DHT22;11376;50.932;4.442;2023-04-10T05:58:49;10.30;99.90
22418;DHT22;11376;50.932;4.442;2023-04-10T06:01:15;10.30;99.90
22418;DHT22;11376;50.932;4.442;2023-04-10T06:03:41;10.30;99.90
22418;DHT22;11376;50.932;4.442;2023-04-10T06:06:07;10.40;99.90
22418;DHT22;11376;50.932;4.442;2023-04-10T06:08:32;10.40;99.90
22418;DHT22;11376;50.932;4.442;2023-04-10T06:10:59;10.40;99.90
22418;DHT22;11376;50.932;4.442;2023-04-10T06:13:24;10.50;99.90
22418;DHT22;11376;50.932;4.442;2023-04-10T06:15:51;10.50;99.90
22418;DHT22;11376;50.932;4.442;2023-04-10T06:18:17;10.50;99.90
22418;DHT22;11376;50.932;4.442;2023-04-10T06:20:43;10.50;99.90
22418;DHT22;11376;50.932;4.442;2023-04-10T06:23:08;10.60;99.90
22418;DHT22;11376;50.932;4.442;2023-04-10T06:25:34;10.70;99.90
22418;DHT22;11376;50.932;4.442;2023-04-10T06:28:00;10.70;99.90
22418;DHT22;11376;50.932;4.442;2023-04-10T06:30:25;10.70;99.90
22418;DHT22;11376;50.932;4.442;2023-04-10T06:32:51;10.70;99.90
22418;DHT22;11376;50.932;4.442;2023-04-10T06:35:16;10.70;99.90
22418;DHT22;11376;50.932;4.442;2023-04-10T06:37:42;10.70;99.90
22418;DHT22;11376;50.932;4.442;2023-04-10T06:40:09;10.80;99.90
22418;DHT22;11376;50.932;4.442;2023-04-10T06:42:36;10.80;99.90
22418;DHT22;11376;50.932;4.442;2023-04-10T06:45:02;10.80;99.90
22418;DHT22;11376;50.932;4.442;2023-04-10T06:47:28;10.90;99.90
22418;DHT22;11376;50.932;4.442;2023-04-10T06:49:54;10.90;99.90
22418;DHT22;11376;50.932;4.442;2023-04-10T06:52:20;11.00;99.90
22418;DHT22;11376;50.932;4.442;2023-04-10T06:54:46;11.10;99.90
22418;DHT22;11376;50.932;4.442;2023-04-10T06:57:11;11.10;99.90
22418;DHT22;11376;50.932;4.442;2023-04-10T06:59:37;11.10;99.90
22418;DHT22;11376;50.932;4.442;2023-04-10T07:02:03;11.20;99.90
22418;DHT22;11376;50.932;4.442;2023-04-10T07:04:28;11.20;99.90
22418;DHT22;11376;50.932;4.442;2023-04-10T07:06:54;11.30;99.90
22418;DHT22;11376;50.932;4.442;2023-04-10T07:09:19;11.20;99.90
22418;DHT22;11376;50.932;4.442;2023-04-10T07:11:45;11.30;99.90
22418;DHT22;11376;50.932;4.442;2023-04-10T07:14:11;11.40;99.90
22418;DHT22;11376;50.932;4.442;2023-04-10T07:16:36;11.40;99.90
22418;DHT22;11376;50.932;4.442;2023-04-10T07:19:02;11.60;99.90
22418;DHT22;11376;50.932;4.442;2023-04-10T07:21:27;11.60;99.90
22418;DHT22;11376;50.932;4.442;2023-04-10T07:23:53;11.70;99.90
22418;DHT22;11376;50.932;4.442;2023-04-10T07:26:19;11.90;99.90
22418;DHT22;11376;50.932;4.442;2023-04-10T07:28:45;11.90;99.90
22418;DHT22;11376;50.932;4.442;2023-04-10T07:31:10;12.00;99.90
22418;DHT22;11376;50.932;4.442;2023-04-10T07:33:37;12.00;99.90
22418;DHT22;11376;50.932;4.442;2023-04-10T07:36:03;12.00;99.90
22418;DHT22;11376;50.932;4.442;2023-04-10T07:38:30;12.20;99.90
22418;DHT22;11376;50.932;4.442;2023-04-10T07:40:57;12.20;99.90
22418;DHT22;11376;50.932;4.442;2023-04-10T07:43:23;12.20;99.90
22418;DHT22;11376;50.932;4.442;2023-04-10T07:45:49;12.30;99.90
22418;DHT22;11376;50.932;4.442;2023-04-10T07:48:14;12.20;99.90
22418;DHT22;11376;50.932;4.442;2023-04-10T07:50:40;12.20;99.90
22418;DHT22;11376;50.932;4.442;2023-04-10T07:53:06;12.10;99.90
22418;DHT22;11376;50.932;4.442;2023-04-10T07:55:37;12.20;99.90
22418;DHT22;11376;50.932;4.442;2023-04-10T07:58:02;12.30;99.90
22418;DHT22;11376;50.932;4.442;2023-04-10T08:00:28;12.40;99.90
22418;DHT22;11376;50.932;4.442;2023-04-10T08:02:53;12.40;99.90
22418;DHT22;11376;50.932;4.442;2023-04-10T08:05:19;12.50;99.90
22418;DHT22;11376;50.932;4.442;2023-04-10T08:07:46;12.60;99.90
22418;DHT22;11376;50.932;4.442;2023-04-10T08:10:11;12.70;99.90
22418;DHT22;11376;50.932;4.442;2023-04-10T08:12:37;12.80;99.90
22418;DHT22;11376;50.932;4.442;2023-04-10T08:15:03;13.00;99.90
22418;DHT22;11376;50.932;4.442;2023-04-10T08:17:28;13.10;99.90
22418;DHT22;11376;50.932;4.442;2023-04-10T08:19:54;13.40;99.90
22418;DHT22;11376;50.932;4.442;2023-04-10T08:22:20;13.40;99.90
22418;DHT22;11376;50.932;4.442;2023-04-10T08:24:46;13.40;99.90
22418;DHT22;11376;50.932;4.442;2023-04-10T08:27:11;13.50;99.90
22418;DHT22;11376;50.932;4.442;2023-04-10T08:29:38;13.40;99.90
22418;DHT22;11376;50.932;4.442;2023-04-10T08:32:04;13.30;99.90
22418;DHT22;11376;50.932;4.442;2023-04-10T08:34:29;13.30;99.90
22418;DHT22;11376;50.932;4.442;2023-04-10T08:36:56;13.30;99.90
22418;DHT22;11376;50.932;4.442;2023-04-10T08:39:21;13.40;99.90
22418;DHT22;11376;50.932;4.442;2023-04-10T08:41:47;13.40;99.90
22418;DHT22;11376;50.932;4.442;2023-04-10T08:44:13;13.60;99.90
22418;DHT22;11376;50.932;4.442;2023-04-10T08:46:42;13.80;99.90
22418;DHT22;11376;50.932;4.442;2023-04-10T08:49:14;14.00;99.90
22418;DHT22;11376;50.932;4.442;2023-04-10T08:51:45;14.20;99.90
22418;DHT22;11376;50.932;4.442;2023-04-10T08:54:19;14.30;99.90
22418;DHT22;11376;50.932;4.442;2023-04-10T08:56:50;14.20;99.90
22418;DHT22;11376;50.932;4.442;2023-04-10T08:59:18;14.30;99.90
22418;DHT22;11376;50.932;4.442;2023-04-10T09:01:44;14.40;99.90
22418;DHT22;11376;50.932;4.442;2023-04-10T09:04:11;14.40;99.90
22418;DHT22;11376;50.932;4.442;2023-04-10T09:06:37;14.30;99.90
22418;DHT22;11376;50.932;4.442;2023-04-10T09:09:05;14.20;99.90
22418;DHT22;11376;50.932;4.442;2023-04-10T09:12:00;14.30;99.90
22418;DHT22;11376;50.932;4.442;2023-04-10T09:16:07;14.40;99.90
22418;DHT22;11376;50.932;4.442;2023-04-10T09:18:40;14.50;99.90
22418;DHT22;11376;50.932;4.442;2023-04-10T09:21:08;14.70;99.90
22418;DHT22;11376;50.932;4.442;2023-04-10T09:23:34;15.00;99.90
22418;DHT22;11376;50.932;4.442;2023-04-10T09:25:59;15.30;99.90
22418;DHT22;11376;50.932;4.442;2023-04-10T09:28:25;15.10;99.90
22418;DHT22;11376;50.932;4.442;2023-04-10T09:30:50;14.90;99.90
22418;DHT22;11376;50.932;4.442;2023-04-10T09:33:21;14.90;99.90
22418;DHT22;11376;50.932;4.442;2023-04-10T09:35:47;14.90;99.90
22418;DHT22;11376;50.932;4.442;2023-04-10T09:38:14;14.90;99.90
22418;DHT22;11376;50.932;4.442;2023-04-10T09:40:41;15.00;99.90
22418;DHT22;11376;50.932;4.442;2023-04-10T09:43:21;15.30;99.90
22418;DHT22;11376;50.932;4.442;2023-04-10T09:45:55;15.40;99.90
22418;DHT22;11376;50.932;4.442;2023-04-10T09:48:22;15.40;99.90
22418;DHT22;11376;50.932;4.442;2023-04-10T09:50:49;15.50;99.90
22418;DHT22;11376;50.932;4.442;2023-04-10T09:53:19;15.40;99.90
22418;DHT22;11376;50.932;4.442;2023-04-10T09:55:49;15.50;99.90
22418;DHT22;11376;50.932;4.442;2023-04-10T09:58:15;15.50;99.90
22418;DHT22;11376;50.932;4.442;2023-04-10T10:00:42;15.80;99.90
22418;DHT22;11376;50.932;4.442;2023-04-10T10:03:15;15.80;99.90
22418;DHT22;11376;50.932;4.442;2023-04-10T10:05:43;15.90;99.90
22418;DHT22;11376;50.932;4.442;2023-04-10T10:08:10;15.90;99.90
22418;DHT22;11376;50.932;4.442;2023-04-10T10:10:47;15.90;99.90
22418;DHT22;11376;50.932;4.442;2023-04-10T10:13:49;16.10;99.90
22418;DHT22;11376;50.932;4.442;2023-04-10T10:16:22;16.40;99.90
22418;DHT22;11376;50.932;4.442;2023-04-10T10:21:25;16.90;99.90
22418;DHT22;11376;50.932;4.442;2023-04-10T10:23:54;16.80;99.90
22418;DHT22;11376;50.932;4.442;2023-04-10T10:26:22;16.90;99.90
22418;DHT22;11376;50.932;4.442;2023-04-10T10:28:50;17.40;99.90
22418;DHT22;11376;50.932;4.442;2023-04-10T10:31:20;17.20;99.90
22418;DHT22;11376;50.932;4.442;2023-04-10T10:33:47;17.10;99.90
22418;DHT22;11376;50.932;4.442;2023-04-10T10:36:14;17.30;99.90
22418;DHT22;11376;50.932;4.442;2023-04-10T10:38:53;17.30;99.90
22418;DHT22;11376;50.932;4.442;2023-04-10T10:41:35;17.10;99.90
22418;DHT22;11376;50.932;4.442;2023-04-10T10:47:16;17.20;99.90
22418;DHT22;11376;50.932;4.442;2023-04-10T10:49:53;17.10;99.90
22418;DHT22;11376;50.932;4.442;2023-04-10T10:58:00;17.40;99.90
22418;DHT22;11376;50.932;4.442;2023-04-10T11:06:00;17.40;99.90
22418;DHT22;11376;50.932;4.442;2023-04-10T11:11:24;17.40;99.90
22418;DHT22;11376;50.932;4.442;2023-04-10T11:19:00;17.40;99.90
22418;DHT22;11376;50.932;4.442;2023-04-10T11:21:27;17.30;99.90
22418;DHT22;11376;50.932;4.442;2023-04-10T11:28:58;17.50;99.90
22418;DHT22;11376;50.932;4.442;2023-04-10T11:31:24;17.60;99.90
22418;DHT22;11376;50.932;4.442;2023-04-10T11:36:25;17.60;99.90
22418;DHT22;11376;50.932;4.442;2023-04-10T11:41:22;17.70;99.90
22418;DHT22;11376;50.932;4.442;2023-04-10T11:43:51;17.80;99.90
22418;DHT22;11376;50.932;4.442;2023-04-10T11:46:16;17.80;99.90
22418;DHT22;11376;50.932;4.442;2023-04-10T11:48:42;17.70;99.90
22418;DHT22;11376;50.932;4.442;2023-04-10T11:51:09;17.70;99.90
22418;DHT22;11376;50.932;4.442;2023-04-10T11:53:36;17.70;99.90
22418;DHT22;11376;50.932;4.442;2023-04-10T11:56:01;17.50;99.90
22418;DHT22;11376;50.932;4.442;2023-04-10T11:58:28;17.40;99.90
22418;DHT22;11376;50.932;4.442;2023-04-10T12:00:59;17.50;99.90
22418;DHT22;11376;50.932;4.442;2023-04-10T12:03:42;17.40;99.90
22418;DHT22;11376;50.932;4.442;2023-04-10T12:06:10;17.50;99.90
22418;DHT22;11376;50.932;4.442;2023-04-10T12:08:42;17.40;99.90
22418;DHT22;11376;50.932;4.442;2023-04-10T12:11:10;17.40;99.90
22418;DHT22;11376;50.932;4.442;2023-04-10T12:13:36;17.30;99.90
22418;DHT22;11376;50.932;4.442;2023-04-10T12:16:08;17.40;99.90
22418;DHT22;11376;50.932;4.442;2023-04-10T12:18:35;17.30;99.90
22418;DHT22;11376;50.932;4.442;2023-04-10T12:21:01;17.40;99.90
22418;DHT22;11376;50.932;4.442;2023-04-10T12:23:28;17.30;99.90
22418;DHT22;11376;50.932;4.442;2023-04-10T12:26:14;17.40;99.90
22418;DHT22;11376;50.932;4.442;2023-04-10T12:28:54;17.30;99.90
22418;DHT22;11376;50.932;4.442;2023-04-10T12:31:32;17.40;99.90
22418;DHT22;11376;50.932;4.442;2023-04-10T12:33:58;17.40;99.90
22418;DHT22;11376;50.932;4.442;2023-04-10T12:36:26;17.50;99.90
22418;DHT22;11376;50.932;4.442;2023-04-10T12:38:57;17.60;99.90
22418;DHT22;11376;50.932;4.442;2023-04-10T12:41:28;17.60;99.90
22418;DHT22;11376;50.932;4.442;2023-04-10T12:44:07;17.60;99.90
22418;DHT22;11376;50.932;4.442;2023-04-10T12:46:33;17.60;99.90
22418;DHT22;11376;50.932;4.442;2023-04-10T12:49:08;17.60;99.90
22418;DHT22;11376;50.932;4.442;2023-04-10T12:51:47;17.40;99.90
22418;DHT22;11376;50.932;4.442;2023-04-10T12:54:34;17.10;99.90
22418;DHT22;11376;50.932;4.442;2023-04-10T12:57:00;16.90;99.90
22418;DHT22;11376;50.932;4.442;2023-04-10T12:59:28;16.60;99.90
22418;DHT22;11376;50.932;4.442;2023-04-10T13:01:54;16.40;99.90
22418;DHT22;11376;50.932;4.442;2023-04-10T13:04:20;16.20;99.90
22418;DHT22;11376;50.932;4.442;2023-04-10T13:06:47;16.10;99.90
22418;DHT22;11376;50.932;4.442;2023-04-10T13:09:14;16.00;99.90
22418;DHT22;11376;50.932;4.442;2023-04-10T13:11:40;16.00;99.90
22418;DHT22;11376;50.932;4.442;2023-04-10T13:14:06;15.90;99.90
22418;DHT22;11376;50.932;4.442;2023-04-10T13:16:32;15.80;99.90
22418;DHT22;11376;50.932;4.442;2023-04-10T13:18:58;15.90;99.90
22418;DHT22;11376;50.932;4.442;2023-04-10T13:21:24;15.90;99.90
22418;DHT22;11376;50.932;4.442;2023-04-10T13:23:54;15.90;99.90
22418;DHT22;11376;50.932;4.442;2023-04-10T13:26:21;16.10;99.90
22418;DHT22;11376;50.932;4.442;2023-04-10T13:28:46;16.10;99.90
22418;DHT22;11376;50.932;4.442;2023-04-10T13:31:12;16.20;99.90
22418;DHT22;11376;50.932;4.442;2023-04-10T13:33:40;16.20;99.90
22418;DHT22;11376;50.932;4.442;2023-04-10T13:36:06;16.20;99.90
22418;DHT22;11376;50.932;4.442;2023-04-10T13:38:32;16.20;99.90
22418;DHT22;11376;50.932;4.442;2023-04-10T13:40:58;16.30;99.90
22418;DHT22;11376;50.932;4.442;2023-04-10T13:43:23;16.40;99.90
22418;DHT22;11376;50.932;4.442;2023-04-10T13:45:49;16.30;99.90
22418;DHT22;11376;50.932;4.442;2023-04-10T13:48:15;16.40;99.90
22418;DHT22;11376;50.932;4.442;2023-04-10T13:50:43;16.60;99.90
22418;DHT22;11376;50.932;4.442;2023-04-10T13:53:08;16.60;99.90
22418;DHT22;11376;50.932;4.442;2023-04-10T13:55:35;16.70;99.90
22418;DHT22;11376;50.932;4.442;2023-04-10T13:58:02;16.70;99.90
22418;DHT22;11376;50.932;4.442;2023-04-10T14:00:27;17.00;99.90
22418;DHT22;11376;50.932;4.442;2023-04-10T14:02:53;17.00;99.90
22418;DHT22;11376;50.932;4.442;2023-04-10T14:05:18;17.20;99.90
22418;DHT22;11376;50.932;4.442;2023-04-10T14:07:44;17.40;99.90
22418;DHT22;11376;50.932;4.442;2023-04-10T14:10:10;17.60;99.90
22418;DHT22;11376;50.932;4.442;2023-04-10T14:12:35;17.60;99.90
22418;DHT22;11376;50.932;4.442;2023-04-10T14:15:01;17.60;99.90
22418;DHT22;11376;50.932;4.442;2023-04-10T14:17:26;17.80;99.90
22418;DHT22;11376;50.932;4.442;2023-04-10T14:19:52;17.70;99.90
22418;DHT22;11376;50.932;4.442;2023-04-10T14:22:18;17.60;99.90
22418;DHT22;11376;50.932;4.442;2023-04-10T14:24:44;17.40;99.90
22418;DHT22;11376;50.932;4.442;2023-04-10T14:27:10;17.40;99.90
22418;DHT22;11376;50.932;4.442;2023-04-10T14:29:36;16.90;99.90
22418;DHT22;11376;50.932;4.442;2023-04-10T14:32:02;16.30;99.90
22418;DHT22;11376;50.932;4.442;2023-04-10T14:34:27;16.10;99.90
22418;DHT22;11376;50.932;4.442;2023-04-10T14:36:53;16.10;99.90
22418;DHT22;11376;50.932;4.442;2023-04-10T14:39:23;16.10;99.90
22418;DHT22;11376;50.932;4.442;2023-04-10T14:41:49;16.20;99.90
22418;DHT22;11376;50.932;4.442;2023-04-10T14:44:15;16.30;99.90
22418;DHT22;11376;50.932;4.442;2023-04-10T14:46:40;16.30;99.90
22418;DHT22;11376;50.932;4.442;2023-04-10T14:49:06;16.00;99.90
22418;DHT22;11376;50.932;4.442;2023-04-10T14:51:32;15.70;99.90
22418;DHT22;11376;50.932;4.442;2023-04-10T14:53:58;15.50;99.90
22418;DHT22;11376;50.932;4.442;2023-04-10T14:56:23;15.40;99.90
22418;DHT22;11376;50.932;4.442;2023-04-10T14:58:49;15.20;99.90
22418;DHT22;11376;50.932;4.442;2023-04-10T15:01:16;15.10;99.90
22418;DHT22;11376;50.932;4.442;2023-04-10T15:03:44;14.80;99.90
22418;DHT22;11376;50.932;4.442;2023-04-10T15:06:10;14.70;99.90
22418;DHT22;11376;50.932;4.442;2023-04-10T15:08:36;14.50;99.90
22418;DHT22;11376;50.932;4.442;2023-04-10T15:11:01;14.30;99.90
22418;DHT22;11376;50.932;4.442;2023-04-10T15:13:29;14.00;99.90
22418;DHT22;11376;50.932;4.442;2023-04-10T15:15:55;13.80;99.90
22418;DHT22;11376;50.932;4.442;2023-04-10T15:18:21;13.80;99.90
22418;DHT22;11376;50.932;4.442;2023-04-10T15:20:46;13.70;99.90
22418;DHT22;11376;50.932;4.442;2023-04-10T15:23:12;13.70;99.90
22418;DHT22;11376;50.932;4.442;2023-04-10T15:25:38;13.70;99.90
22418;DHT22;11376;50.932;4.442;2023-04-10T15:28:03;13.70;99.90
22418;DHT22;11376;50.932;4.442;2023-04-10T15:30:29;13.70;99.90
22418;DHT22;11376;50.932;4.442;2023-04-10T15:32:55;13.60;99.90
22418;DHT22;11376;50.932;4.442;2023-04-10T15:35:21;13.50;99.90
22418;DHT22;11376;50.932;4.442;2023-04-10T15:37:49;13.50;99.90
22418;DHT22;11376;50.932;4.442;2023-04-10T15:40:14;13.40;99.90
22418;DHT22;11376;50.932;4.442;2023-04-10T15:42:40;13.20;99.90
22418;DHT22;11376;50.932;4.442;2023-04-10T15:45:05;13.00;99.90
22418;DHT22;11376;50.932;4.442;2023-04-10T15:47:31;13.00;99.90
22418;DHT22;11376;50.932;4.442;2023-04-10T15:49:57;12.90;99.90
22418;DHT22;11376;50.932;4.442;2023-04-10T15:52:23;12.80;99.90
22418;DHT22;11376;50.932;4.442;2023-04-10T15:54:49;12.70;99.90
22418;DHT22;11376;50.932;4.442;2023-04-10T15:57:15;12.60;99.90
22418;DHT22;11376;50.932;4.442;2023-04-10T15:59:41;12.40;99.90
22418;DHT22;11376;50.932;4.442;2023-04-10T16:02:06;12.30;99.90
22418;DHT22;11376;50.932;4.442;2023-04-10T16:04:32;12.20;99.90
22418;DHT22;11376;50.932;4.442;2023-04-10T16:06:59;12.10;99.90
22418;DHT22;11376;50.932;4.442;2023-04-10T16:09:25;12.00;99.90
22418;DHT22;11376;50.932;4.442;2023-04-10T16:11:51;11.90;99.90
22418;DHT22;11376;50.932;4.442;2023-04-10T16:14:17;11.70;99.90
22418;DHT22;11376;50.932;4.442;2023-04-10T16:16:43;11.70;99.90
22418;DHT22;11376;50.932;4.442;2023-04-10T16:19:09;11.50;99.90